sensor_id;sensor_type;location;lat;lon;timestamp;pressure;altitude;pressure_sealevel;temperature;humidity
39793;BME280;26080;42.264;24.536;2023-04-25T00:01:58;98586.97;;;11.77;100.00
39793;BME280;26080;42.264;24.536;2023-04-25T00:04:25;98577.50;;;11.75;100.00
39793;BME280;26080;42.264;24.536;2023-04-25T00:06:50;98567.78;;;11.63;100.00
39793;BME280;26080;42.264;24.536;2023-04-25T00:09:17;98572.94;;;11.64;100.00
39793;BME280;26080;42.264;24.536;2023-04-25T00:11:42;98572.59;;;11.56;100.00
39793;BME280;26080;42.264;24.536;2023-04-25T00:14:08;98552.66;;;11.53;100.00
39793;BME280;26080;42.264;24.536;2023-04-25T00:16:35;98510.81;;;11.23;100.00
39793;BME280;26080;42.264;24.536;2023-04-25T00:19:01;98546.94;;;11.47;100.00
39793;BME280;26080;42.264;24.536;2023-04-25T00:21:28;98539.38;;;11.42;100.00
39793;BME280;26080;42.264;24.536;2023-04-25T00:23:56;98545.66;;;11.40;100.00
39793;BME280;26080;42.264;24.536;2023-04-25T00:26:22;98529.44;;;11.33;100.00
39793;BME280;26080;42.264;24.536;2023-04-25T00:28:48;98534.13;;;11.42;100.00
39793;BME280;26080;42.264;24.536;2023-04-25T00:31:13;98549.88;;;11.42;100.00
39793;BME280;26080;42.264;24.536;2023-04-25T00:33:39;98544.16;;;11.36;100.00
39793;BME280;26080;42.264;24.536;2023-04-25T00:36:05;98554.63;;;11.36;100.00
39793;BME280;26080;42.264;24.536;2023-04-25T00:38:30;98557.16;;;11.37;100.00
39793;BME280;26080;42.264;24.536;2023-04-25T00:40:56;98555.00;;;11.44;100.00
39793;BME280;26080;42.264;24.536;2023-04-25T00:43:26;98503.16;;;11.20;100.00
39793;BME280;26080;42.264;24.536;2023-04-25T00:45:52;98544.41;;;11.45;100.00
39793;BME280;26080;42.264;24.536;2023-04-25T00:48:19;98521.38;;;11.36;100.00
39793;BME280;26080;42.264;24.536;2023-04-25T00:50:54;98538.44;;;11.43;100.00
39793;BME280;26080;42.264;24.536;2023-04-25T00:53:20;98535.72;;;11.45;100.00
39793;BME280;26080;42.264;24.536;2023-04-25T00:55:46;98507.00;;;11.29;100.00
39793;BME280;26080;42.264;24.536;2023-04-25T00:58:12;98509.44;;;11.32;100.00
39793;BME280;26080;42.264;24.536;2023-04-25T01:00:39;98541.41;;;11.37;100.00
39793;BME280;26080;42.264;24.536;2023-04-25T01:03:05;98529.28;;;11.22;100.00
39793;BME280;26080;42.264;24.536;2023-04-25T01:05:31;98551.47;;;11.31;100.00
39793;BME280;26080;42.264;24.536;2023-04-25T01:07:56;98559.22;;;11.32;100.00
39793;BME280;26080;42.264;24.536;2023-04-25T01:10:22;98557.44;;;11.33;100.00
39793;BME280;26080;42.264;24.536;2023-04-25T01:12:47;98561.41;;;11.25;100.00
39793;BME280;26080;42.264;24.536;2023-04-25T01:15:13;98557.84;;;11.12;100.00
39793;BME280;26080;42.264;24.536;2023-04-25T01:17:40;98564.69;;;11.01;100.00
39793;BME280;26080;42.264;24.536;2023-04-25T01:20:06;98521.31;;;10.66;100.00
39793;BME280;26080;42.264;24.536;2023-04-25T01:22:33;98547.72;;;10.78;100.00
39793;BME280;26080;42.264;24.536;2023-04-25T01:25:00;98522.97;;;10.53;100.00
39793;BME280;26080;42.264;24.536;2023-04-25T01:27:25;98552.38;;;10.58;100.00
39793;BME280;26080;42.264;24.536;2023-04-25T01:29:51;98538.56;;;10.41;100.00
39793;BME280;26080;42.264;24.536;2023-04-25T01:32:18;98559.72;;;10.52;100.00
39793;BME280;26080;42.264;24.536;2023-04-25T01:34:44;98546.81;;;10.49;100.00
39793;BME280;26080;42.264;24.536;2023-04-25T01:37:09;98543.66;;;10.44;100.00
39793;BME280;26080;42.264;24.536;2023-04-25T01:39:35;98539.50;;;10.39;100.00
39793;BME280;26080;42.264;24.536;2023-04-25T01:42:00;98532.69;;;10.37;100.00
39793;BME280;26080;42.264;24.536;2023-04-25T01:44:26;98531.84;;;10.36;100.00
39793;BME280;26080;42.264;24.536;2023-04-25T01:46:53;98522.41;;;10.34;100.00
39793;BME280;26080;42.264;24.536;2023-04-25T01:49:19;98512.03;;;10.32;100.00
39793;BME280;26080;42.264;24.536;2023-04-25T01:51:44;98516.31;;;10.33;100.00
39793;BME280;26080;42.264;24.536;2023-04-25T01:54:10;98525.41;;;10.42;100.00
39793;BME280;26080;42.264;24.536;2023-04-25T01:56:37;98522.31;;;10.50;100.00
39793;BME280;26080;42.264;24.536;2023-04-25T01:59:04;98522.72;;;10.58;100.00
39793;BME280;26080;42.264;24.536;2023-04-25T02:01:29;98507.47;;;10.50;100.00
39793;BME280;26080;42.264;24.536;2023-04-25T02:03:55;98508.13;;;10.54;100.00
39793;BME280;26080;42.264;24.536;2023-04-25T02:06:20;98506.28;;;10.56;100.00
39793;BME280;26080;42.264;24.536;2023-04-25T02:08:46;98494.09;;;10.55;100.00
39793;BME280;26080;42.264;24.536;2023-04-25T02:11:11;98505.25;;;10.58;100.00
39793;BME280;26080;42.264;24.536;2023-04-25T02:13:37;98506.94;;;10.59;100.00
39793;BME280;26080;42.264;24.536;2023-04-25T02:16:02;98501.78;;;10.58;100.00
39793;BME280;26080;42.264;24.536;2023-04-25T02:18:28;98506.34;;;10.54;100.00
39793;BME280;26080;42.264;24.536;2023-04-25T02:20:53;98516.06;;;10.52;100.00
39793;BME280;26080;42.264;24.536;2023-04-25T02:23:19;98506.44;;;10.53;100.00
39793;BME280;26080;42.264;24.536;2023-04-25T02:25:45;98509.88;;;10.53;100.00
39793;BME280;26080;42.264;24.536;2023-04-25T02:28:10;98508.13;;;10.54;100.00
39793;BME280;26080;42.264;24.536;2023-04-25T02:30:36;98516.91;;;10.53;100.00
39793;BME280;26080;42.264;24.536;2023-04-25T02:33:01;98522.31;;;10.50;100.00
39793;BME280;26080;42.264;24.536;2023-04-25T02:35:27;98520.28;;;10.55;100.00
39793;BME280;26080;42.264;24.536;2023-04-25T02:37:52;98521.22;;;10.54;100.00
39793;BME280;26080;42.264;24.536;2023-04-25T02:40:18;98521.22;;;10.54;100.00
39793;BME280;26080;42.264;24.536;2023-04-25T02:42:43;98520.47;;;10.52;100.00
39793;BME280;26080;42.264;24.536;2023-04-25T02:45:11;98515.22;;;10.52;100.00
39793;BME280;26080;42.264;24.536;2023-04-25T02:47:36;98503.91;;;10.51;100.00
39793;BME280;26080;42.264;24.536;2023-04-25T02:50:03;98508.13;;;10.54;100.00
39793;BME280;26080;42.264;24.536;2023-04-25T02:52:29;98508.50;;;10.62;100.00
39793;BME280;26080;42.264;24.536;2023-04-25T02:54:54;98510.41;;;10.74;100.00
39793;BME280;26080;42.264;24.536;2023-04-25T02:57:19;98511.53;;;10.84;100.00
39793;BME280;26080;42.264;24.536;2023-04-25T02:59:45;98486.19;;;10.71;100.00
39793;BME280;26080;42.264;24.536;2023-04-25T03:02:10;98498.69;;;10.94;100.00
39793;BME280;26080;42.264;24.536;2023-04-25T03:04:36;98500.31;;;10.96;100.00
39793;BME280;26080;42.264;24.536;2023-04-25T03:07:01;98500.13;;;11.00;100.00
39793;BME280;26080;42.264;24.536;2023-04-25T03:09:27;98499.44;;;10.96;100.00
39793;BME280;26080;42.264;24.536;2023-04-25T03:11:53;98467.44;;;10.91;100.00
39793;BME280;26080;42.264;24.536;2023-04-25T03:14:18;98489.25;;;11.06;100.00
39793;BME280;26080;42.264;24.536;2023-04-25T03:16:43;98494.47;;;11.06;100.00
39793;BME280;26080;42.264;24.536;2023-04-25T03:19:09;98489.03;;;11.09;100.00
39793;BME280;26080;42.264;24.536;2023-04-25T03:21:35;98490.28;;;11.03;100.00
39793;BME280;26080;42.264;24.536;2023-04-25T03:24:02;98496.47;;;11.02;100.00
39793;BME280;26080;42.264;24.536;2023-04-25T03:26:28;98487.56;;;11.05;100.00
39793;BME280;26080;42.264;24.536;2023-04-25T03:28:54;98489.34;;;11.04;100.00
39793;BME280;26080;42.264;24.536;2023-04-25T03:31:20;98485.88;;;11.04;100.00
39793;BME280;26080;42.264;24.536;2023-04-25T03:33:45;98482.13;;;11.08;100.00
39793;BME280;26080;42.264;24.536;2023-04-25T03:36:10;98488.41;;;11.05;100.00
39793;BME280;26080;42.264;24.536;2023-04-25T03:38:36;98487.34;;;11.08;100.00
39793;BME280;26080;42.264;24.536;2023-04-25T03:41:01;98491.28;;;11.15;100.00
39793;BME280;26080;42.264;24.536;2023-04-25T03:43:27;98468.88;;;10.96;100.00
39793;BME280;26080;42.264;24.536;2023-04-25T03:45:52;98493.53;;;11.21;100.00
39793;BME280;26080;42.264;24.536;2023-04-25T03:48:18;98488.13;;;11.24;100.00
39793;BME280;26080;42.264;24.536;2023-04-25T03:50:46;98492.03;;;11.17;100.00
39793;BME280;26080;42.264;24.536;2023-04-25T03:53:12;98494.13;;;11.12;100.00
39793;BME280;26080;42.264;24.536;2023-04-25T03:55:37;98497.69;;;11.11;100.00
39793;BME280;26080;42.264;24.536;2023-04-25T03:58:03;98494.97;;;11.12;100.00
39793;BME280;26080;42.264;24.536;2023-04-25T04:00:28;98492.00;;;11.31;100.00
39793;BME280;26080;42.264;24.536;2023-04-25T04:02:54;98484.84;;;11.47;100.00
39793;BME280;26080;42.264;24.536;2023-04-25T04:05:19;98480.91;;;11.54;100.00
39793;BME280;26080;42.264;24.536;2023-04-25T04:07:44;98470.63;;;11.51;100.00
39793;BME280;26080;42.264;24.536;2023-04-25T04:10:10;98457.38;;;11.40;100.00
39793;BME280;26080;42.264;24.536;2023-04-25T04:12:36;98454.91;;;11.37;100.00
39793;BME280;26080;42.264;24.536;2023-04-25T04:15:03;98491.94;;;11.60;100.00
39793;BME280;26080;42.264;24.536;2023-04-25T04:17:29;98486.13;;;11.69;100.00
39793;BME280;26080;42.264;24.536;2023-04-25T04:19:55;98482.84;;;11.65;100.00
39793;BME280;26080;42.264;24.536;2023-04-25T04:22:21;98476.19;;;11.60;100.00
39793;BME280;26080;42.264;24.536;2023-04-25T04:24:47;98457.09;;;11.57;100.00
39793;BME280;26080;42.264;24.536;2023-04-25T04:27:13;98478.22;;;11.83;100.00
39793;BME280;26080;42.264;24.536;2023-04-25T04:29:38;98485.47;;;11.92;100.00
39793;BME280;26080;42.264;24.536;2023-04-25T04:32:04;98481.00;;;11.94;100.00
39793;BME280;26080;42.264;24.536;2023-04-25T04:34:30;98479.59;;;11.89;100.00
39793;BME280;26080;42.264;24.536;2023-04-25T04:36:56;98484.25;;;11.98;100.00
39793;BME280;26080;42.264;24.536;2023-04-25T04:39:22;98493.47;;;12.03;100.00
39793;BME280;26080;42.264;24.536;2023-04-25T04:41:48;98499.28;;;12.08;100.00
39793;BME280;26080;42.264;24.536;2023-04-25T04:44:14;98502.75;;;12.09;100.00
39793;BME280;26080;42.264;24.536;2023-04-25T04:46:40;98509.16;;;12.18;100.00
39793;BME280;26080;42.264;24.536;2023-04-25T04:49:11;98513.91;;;12.25;100.00
39793;BME280;26080;42.264;24.536;2023-04-25T04:51:38;98486.81;;;12.25;100.00
39793;BME280;26080;42.264;24.536;2023-04-25T04:54:03;98503.75;;;12.46;100.00
39793;BME280;26080;42.264;24.536;2023-04-25T04:56:29;98487.47;;;12.41;100.00
39793;BME280;26080;42.264;24.536;2023-04-25T04:58:56;98513.31;;;12.47;100.00
39793;BME280;26080;42.264;24.536;2023-04-25T05:01:22;98518.56;;;12.47;100.00
39793;BME280;26080;42.264;24.536;2023-04-25T05:03:47;98517.41;;;12.51;100.00
39793;BME280;26080;42.264;24.536;2023-04-25T05:06:12;98523.19;;;12.56;100.00
39793;BME280;26080;42.264;24.536;2023-04-25T05:08:38;98506.38;;;12.46;100.00
39793;BME280;26080;42.264;24.536;2023-04-25T05:11:03;98519.00;;;12.54;100.00
39793;BME280;26080;42.264;24.536;2023-04-25T05:13:29;98527.50;;;12.57;100.00
39793;BME280;26080;42.264;24.536;2023-04-25T05:15:54;98522.47;;;12.54;100.00
39793;BME280;26080;42.264;24.536;2023-04-25T05:18:20;98494.84;;;12.49;100.00
39793;BME280;26080;42.264;24.536;2023-04-25T05:20:53;98524.25;;;12.79;100.00
39793;BME280;26080;42.264;24.536;2023-04-25T05:23:19;98522.59;;;12.91;100.00
39793;BME280;26080;42.264;24.536;2023-04-25T05:25:44;98522.16;;;12.97;100.00
39793;BME280;26080;42.264;24.536;2023-04-25T05:28:11;98525.31;;;13.02;100.00
39793;BME280;26080;42.264;24.536;2023-04-25T05:30:37;98519.75;;;12.94;100.00
39793;BME280;26080;42.264;24.536;2023-04-25T05:33:02;98495.03;;;12.84;100.00
39793;BME280;26080;42.264;24.536;2023-04-25T05:35:28;98514.59;;;13.05;100.00
39793;BME280;26080;42.264;24.536;2023-04-25T05:37:53;98508.66;;;13.27;100.00
39793;BME280;26080;42.264;24.536;2023-04-25T05:40:19;98513.25;;;13.49;100.00
39793;BME280;26080;42.264;24.536;2023-04-25T05:42:44;98473.97;;;13.34;100.00
39793;BME280;26080;42.264;24.536;2023-04-25T05:45:10;98513.44;;;13.58;100.00
39793;BME280;26080;42.264;24.536;2023-04-25T05:47:35;98505.31;;;13.61;100.00
39793;BME280;26080;42.264;24.536;2023-04-25T05:50:01;98506.31;;;13.48;100.00
39793;BME280;26080;42.264;24.536;2023-04-25T05:52:26;98503.91;;;13.45;100.00
39793;BME280;26080;42.264;24.536;2023-04-25T05:54:52;98500.19;;;13.60;100.00
39793;BME280;26080;42.264;24.536;2023-04-25T05:57:22;98494.47;;;13.66;100.00
39793;BME280;26080;42.264;24.536;2023-04-25T05:59:48;98494.63;;;14.00;100.00
39793;BME280;26080;42.264;24.536;2023-04-25T06:02:14;98497.00;;;14.27;100.00
39793;BME280;26080;42.264;24.536;2023-04-25T06:04:39;98498.09;;;14.35;100.00
39793;BME280;26080;42.264;24.536;2023-04-25T06:07:04;98493.84;;;14.45;100.00
39793;BME280;26080;42.264;24.536;2023-04-25T06:09:30;98494.72;;;14.57;100.00
39793;BME280;26080;42.264;24.536;2023-04-25T06:11:55;98495.78;;;14.55;100.00
39793;BME280;26080;42.264;24.536;2023-04-25T06:14:21;98502.03;;;14.76;100.00
39793;BME280;26080;42.264;24.536;2023-04-25T06:16:46;98508.66;;;14.93;100.00
39793;BME280;26080;42.264;24.536;2023-04-25T06:19:12;98510.47;;;14.81;100.00
39793;BME280;26080;42.264;24.536;2023-04-25T06:21:37;98511.88;;;15.07;100.00
39793;BME280;26080;42.264;24.536;2023-04-25T06:24:03;98517.78;;;15.11;100.00
39793;BME280;26080;42.264;24.536;2023-04-25T06:26:29;98506.59;;;15.30;100.00
39793;BME280;26080;42.264;24.536;2023-04-25T06:28:54;98512.13;;;15.27;100.00
39793;BME280;26080;42.264;24.536;2023-04-25T06:31:20;98510.34;;;15.16;100.00
39793;BME280;26080;42.264;24.536;2023-04-25T06:33:45;98507.34;;;15.09;100.00
39793;BME280;26080;42.264;24.536;2023-04-25T06:36:11;98507.81;;;15.15;100.00
39793;BME280;26080;42.264;24.536;2023-04-25T06:38:36;98487.56;;;15.26;100.00
39793;BME280;26080;42.264;24.536;2023-04-25T06:41:02;98513.28;;;15.56;100.00
39793;BME280;26080;42.264;24.536;2023-04-25T06:43:27;98512.09;;;15.60;100.00
39793;BME280;26080;42.264;24.536;2023-04-25T06:45:53;98511.50;;;15.68;100.00
39793;BME280;26080;42.264;24.536;2023-04-25T06:48:18;98505.38;;;15.79;100.00
39793;BME280;26080;42.264;24.536;2023-04-25T06:50:44;98503.97;;;15.95;100.00
39793;BME280;26080;42.264;24.536;2023-04-25T06:53:09;98512.63;;;15.97;100.00
39793;BME280;26080;42.264;24.536;2023-04-25T06:55:36;98503.44;;;16.13;100.00
39793;BME280;26080;42.264;24.536;2023-04-25T06:58:02;98500.47;;;16.06;100.00
39793;BME280;26080;42.264;24.536;2023-04-25T07:00:28;98509.19;;;16.18;100.00
39793;BME280;26080;42.264;24.536;2023-04-25T07:02:53;98498.88;;;15.83;100.00
39793;BME280;26080;42.264;24.536;2023-04-25T07:05:19;98487.63;;;15.69;100.00
39793;BME280;26080;42.264;24.536;2023-04-25T07:07:45;98496.47;;;15.80;100.00
39793;BME280;26080;42.264;24.536;2023-04-25T07:10:10;98491.91;;;16.14;100.00
39793;BME280;26080;42.264;24.536;2023-04-25T07:12:36;98487.84;;;16.30;100.00
39793;BME280;26080;42.264;24.536;2023-04-25T07:15:01;98490.69;;;16.39;100.00
39793;BME280;26080;42.264;24.536;2023-04-25T07:17:31;98484.38;;;16.51;100.00
39793;BME280;26080;42.264;24.536;2023-04-25T07:19:57;98483.63;;;16.60;100.00
39793;BME280;26080;42.264;24.536;2023-04-25T07:22:22;98491.31;;;16.94;100.00
39793;BME280;26080;42.264;24.536;2023-04-25T07:24:47;98486.09;;;17.13;100.00
39793;BME280;26080;42.264;24.536;2023-04-25T07:27:14;98457.97;;;17.12;100.00
39793;BME280;26080;42.264;24.536;2023-04-25T07:29:39;98482.06;;;17.09;100.00
39793;BME280;26080;42.264;24.536;2023-04-25T07:32:05;98490.88;;;17.19;100.00
39793;BME280;26080;42.264;24.536;2023-04-25T07:34:30;98486.19;;;16.92;100.00
39793;BME280;26080;42.264;24.536;2023-04-25T07:36:56;98475.06;;;16.98;100.00
39793;BME280;26080;42.264;24.536;2023-04-25T07:39:21;98481.44;;;16.96;100.00
39793;BME280;26080;42.264;24.536;2023-04-25T07:41:48;98478.53;;;16.99;100.00
39793;BME280;26080;42.264;24.536;2023-04-25T07:44:13;98478.78;;;17.26;100.00
39793;BME280;26080;42.264;24.536;2023-04-25T07:46:38;98480.81;;;17.13;100.00
39793;BME280;26080;42.264;24.536;2023-04-25T07:49:04;98483.97;;;17.37;100.00
39793;BME280;26080;42.264;24.536;2023-04-25T07:51:29;98485.03;;;17.15;100.00
39793;BME280;26080;42.264;24.536;2023-04-25T07:53:55;98482.94;;;17.19;100.00
39793;BME280;26080;42.264;24.536;2023-04-25T07:56:20;98489.53;;;17.34;100.00
39793;BME280;26080;42.264;24.536;2023-04-25T07:58:46;98488.19;;;17.09;100.00
39793;BME280;26080;42.264;24.536;2023-04-25T08:01:11;98480.09;;;17.01;100.00
39793;BME280;26080;42.264;24.536;2023-04-25T08:03:37;98454.84;;;16.87;100.00
39793;BME280;26080;42.264;24.536;2023-04-25T08:06:02;98479.28;;;17.10;100.00
39793;BME280;26080;42.264;24.536;2023-04-25T08:08:28;98465.91;;;17.12;100.00
39793;BME280;26080;42.264;24.536;2023-04-25T08:10:53;98485.13;;;17.54;100.00
39793;BME280;26080;42.264;24.536;2023-04-25T08:13:19;98468.97;;;17.47;100.00
39793;BME280;26080;42.264;24.536;2023-04-25T08:15:45;98494.72;;;17.45;100.00
39793;BME280;26080;42.264;24.536;2023-04-25T08:18:10;98485.25;;;17.43;100.00
39793;BME280;26080;42.264;24.536;2023-04-25T08:20:35;98483.69;;;17.40;100.00
39793;BME280;26080;42.264;24.536;2023-04-25T08:23:01;98480.59;;;17.26;100.00
39793;BME280;26080;42.264;24.536;2023-04-25T08:25:27;98481.19;;;17.39;100.00
39793;BME280;26080;42.264;24.536;2023-04-25T08:27:52;98486.81;;;17.65;100.00
39793;BME280;26080;42.264;24.536;2023-04-25T08:30:17;98484.66;;;17.70;100.00
39793;BME280;26080;42.264;24.536;2023-04-25T08:32:43;98488.84;;;17.82;100.00
39793;BME280;26080;42.264;24.536;2023-04-25T08:35:09;98487.72;;;17.94;100.00
39793;BME280;26080;42.264;24.536;2023-04-25T08:37:34;98481.31;;;18.06;100.00
39793;BME280;26080;42.264;24.536;2023-04-25T08:40:00;98471.16;;;18.12;100.00
39793;BME280;26080;42.264;24.536;2023-04-25T08:42:26;98463.31;;;18.20;100.00
39793;BME280;26080;42.264;24.536;2023-04-25T08:44:53;98494.69;;;18.34;100.00
39793;BME280;26080;42.264;24.536;2023-04-25T08:47:22;98483.00;;;18.37;100.00
39793;BME280;26080;42.264;24.536;2023-04-25T08:49:47;98485.50;;;18.38;100.00
39793;BME280;26080;42.264;24.536;2023-04-25T08:52:13;98484.66;;;18.28;100.00
39793;BME280;26080;42.264;24.536;2023-04-25T08:54:43;98475.03;;;18.27;100.00
39793;BME280;26080;42.264;24.536;2023-04-25T08:57:10;98479.47;;;18.36;100.00
39793;BME280;26080;42.264;24.536;2023-04-25T08:59:36;98481.88;;;18.39;100.00
39793;BME280;26080;42.264;24.536;2023-04-25T09:02:04;98479.38;;;18.38;100.00
39793;BME280;26080;42.264;24.536;2023-04-25T09:04:32;98481.88;;;18.39;100.00
39793;BME280;26080;42.264;24.536;2023-04-25T09:06:57;98478.53;;;18.37;100.00
39793;BME280;26080;42.264;24.536;2023-04-25T09:09:24;98473.75;;;18.50;100.00
39793;BME280;26080;42.264;24.536;2023-04-25T09:11:49;98470.09;;;18.71;100.00
39793;BME280;26080;42.264;24.536;2023-04-25T09:14:20;98473.16;;;19.13;100.00
39793;BME280;26080;42.264;24.536;2023-04-25T09:17:04;98469.97;;;19.09;100.00
39793;BME280;26080;42.264;24.536;2023-04-25T09:19:34;98465.16;;;19.22;100.00
39793;BME280;26080;42.264;24.536;2023-04-25T09:22:03;98460.00;;;19.21;100.00
39793;BME280;26080;42.264;24.536;2023-04-25T09:24:41;98455.72;;;19.10;100.00
39793;BME280;26080;42.264;24.536;2023-04-25T09:27:10;98449.03;;;19.06;100.00
39793;BME280;26080;42.264;24.536;2023-04-25T09:29:38;98450.09;;;18.86;100.00
39793;BME280;26080;42.264;24.536;2023-04-25T09:32:16;98451.63;;;18.88;100.00
39793;BME280;26080;42.264;24.536;2023-04-25T09:34:43;98451.38;;;18.82;100.00
39793;BME280;26080;42.264;24.536;2023-04-25T09:37:10;98447.44;;;18.86;100.00
39793;BME280;26080;42.264;24.536;2023-04-25T09:39:39;98428.69;;;18.97;100.00
39793;BME280;26080;42.264;24.536;2023-04-25T09:42:05;98431.63;;;18.94;100.00
39793;BME280;26080;42.264;24.536;2023-04-25T09:44:31;98401.75;;;18.64;100.00
39793;BME280;26080;42.264;24.536;2023-04-25T09:46:57;98423.78;;;18.65;100.00
39793;BME280;26080;42.264;24.536;2023-04-25T09:49:22;98430.31;;;18.61;100.00
39793;BME280;26080;42.264;24.536;2023-04-25T09:51:58;98431.19;;;18.52;100.00
39793;BME280;26080;42.264;24.536;2023-04-25T09:54:26;98421.69;;;18.69;100.00
39793;BME280;26080;42.264;24.536;2023-04-25T09:56:53;98421.34;;;18.81;100.00
39793;BME280;26080;42.264;24.536;2023-04-25T09:59:22;98393.50;;;18.68;100.00
39793;BME280;26080;42.264;24.536;2023-04-25T10:01:49;98410.91;;;18.80;100.00
39793;BME280;26080;42.264;24.536;2023-04-25T10:04:19;98399.84;;;18.84;100.00
39793;BME280;26080;42.264;24.536;2023-04-25T10:06:48;98385.00;;;18.45;100.00
39793;BME280;26080;42.264;24.536;2023-04-25T10:09:14;98392.78;;;18.56;100.00
39793;BME280;26080;42.264;24.536;2023-04-25T10:11:41;98391.44;;;18.42;100.00
39793;BME280;26080;42.264;24.536;2023-04-25T10:14:06;98377.44;;;18.50;100.00
39793;BME280;26080;42.264;24.536;2023-04-25T10:16:32;98372.88;;;18.52;100.00
39793;BME280;26080;42.264;24.536;2023-04-25T10:18:57;98363.25;;;18.51;100.00
39793;BME280;26080;42.264;24.536;2023-04-25T10:21:24;98360.22;;;18.73;100.00
39793;BME280;26080;42.264;24.536;2023-04-25T10:23:52;98359.50;;;18.81;100.00
39793;BME280;26080;42.264;24.536;2023-04-25T10:26:18;98351.75;;;18.60;100.00
39793;BME280;26080;42.264;24.536;2023-04-25T10:29:01;98361.22;;;18.62;100.00
39793;BME280;26080;42.264;24.536;2023-04-25T10:31:29;98352.72;;;18.59;100.00
39793;BME280;26080;42.264;24.536;2023-04-25T10:33:56;98340.75;;;18.64;100.00
39793;BME280;26080;42.264;24.536;2023-04-25T10:36:22;98318.28;;;18.49;100.00
39793;BME280;26080;42.264;24.536;2023-04-25T10:38:50;98334.53;;;18.74;100.00
39793;BME280;26080;42.264;24.536;2023-04-25T10:41:20;98340.66;;;18.84;100.00
39793;BME280;26080;42.264;24.536;2023-04-25T10:43:48;98332.38;;;18.87;100.00
39793;BME280;26080;42.264;24.536;2023-04-25T10:48:45;98326.22;;;19.14;100.00
39793;BME280;26080;42.264;24.536;2023-04-25T10:51:25;98310.22;;;19.06;100.00
39793;BME280;26080;42.264;24.536;2023-04-25T10:56:21;98316.94;;;19.00;90.07
39793;BME280;26080;42.264;24.536;2023-04-25T10:58:47;98280.78;;;18.99;87.75
39793;BME280;26080;42.264;24.536;2023-04-25T11:01:13;98272.53;;;19.02;82.62
39793;BME280;26080;42.264;24.536;2023-04-25T11:03:43;98266.47;;;19.10;87.27
39793;BME280;26080;42.264;24.536;2023-04-25T11:06:21;98293.53;;;19.13;88.16
39793;BME280;26080;42.264;24.536;2023-04-25T11:08:49;98278.97;;;19.17;82.50
39793;BME280;26080;42.264;24.536;2023-04-25T11:11:17;98267.09;;;19.21;82.02
39793;BME280;26080;42.264;24.536;2023-04-25T11:13:43;98271.72;;;19.19;80.77
39793;BME280;26080;42.264;24.536;2023-04-25T11:16:08;98278.59;;;19.30;79.95
39793;BME280;26080;42.264;24.536;2023-04-25T11:18:34;98273.75;;;19.26;80.46
39793;BME280;26080;42.264;24.536;2023-04-25T11:21:00;98275.19;;;19.20;80.83
39793;BME280;26080;42.264;24.536;2023-04-25T11:23:26;98267.75;;;19.23;81.52
39793;BME280;26080;42.264;24.536;2023-04-25T11:25:52;98266.38;;;19.37;88.64
39793;BME280;26080;42.264;24.536;2023-04-25T11:28:21;98261.38;;;19.34;82.81
39793;BME280;26080;42.264;24.536;2023-04-25T11:30:48;98258.44;;;19.55;85.20
39793;BME280;26080;42.264;24.536;2023-04-25T11:33:15;98254.63;;;19.83;86.80
39793;BME280;26080;42.264;24.536;2023-04-25T11:35:41;98246.16;;;20.14;88.20
39793;BME280;26080;42.264;24.536;2023-04-25T11:38:06;98244.63;;;20.37;83.84
39793;BME280;26080;42.264;24.536;2023-04-25T11:40:32;98244.03;;;20.44;83.06
39793;BME280;26080;42.264;24.536;2023-04-25T11:42:59;98235.72;;;20.47;80.21
39793;BME280;26080;42.264;24.536;2023-04-25T11:45:25;98238.44;;;20.63;82.93
39793;BME280;26080;42.264;24.536;2023-04-25T11:47:51;98228.16;;;20.76;83.06
39793;BME280;26080;42.264;24.536;2023-04-25T11:50:17;98226.88;;;20.88;81.74
39793;BME280;26080;42.264;24.536;2023-04-25T11:52:44;98218.75;;;21.14;81.02
39793;BME280;26080;42.264;24.536;2023-04-25T11:55:13;98202.94;;;21.13;78.75
39793;BME280;26080;42.264;24.536;2023-04-25T11:57:40;98207.97;;;21.32;83.77
39793;BME280;26080;42.264;24.536;2023-04-25T12:02:35;98188.94;;;21.76;81.36
39793;BME280;26080;42.264;24.536;2023-04-25T12:05:01;98186.56;;;21.89;80.18
39793;BME280;26080;42.264;24.536;2023-04-25T12:07:29;98186.97;;;21.45;77.22
39793;BME280;26080;42.264;24.536;2023-04-25T12:09:55;98191.31;;;21.54;79.42
39793;BME280;26080;42.264;24.536;2023-04-25T12:12:21;98193.81;;;21.32;74.40
39793;BME280;26080;42.264;24.536;2023-04-25T12:14:47;98196.28;;;21.09;77.67
39793;BME280;26080;42.264;24.536;2023-04-25T12:17:16;98157.66;;;20.64;78.53
39793;BME280;26080;42.264;24.536;2023-04-25T12:19:42;98173.56;;;20.56;80.77
39793;BME280;26080;42.264;24.536;2023-04-25T12:22:22;98189.88;;;20.53;80.36
39793;BME280;26080;42.264;24.536;2023-04-25T12:24:48;98170.69;;;19.99;80.11
39793;BME280;26080;42.264;24.536;2023-04-25T12:27:15;98200.41;;;19.94;81.12
39793;BME280;26080;42.264;24.536;2023-04-25T12:29:55;98203.75;;;19.70;83.99
39793;BME280;26080;42.264;24.536;2023-04-25T12:32:21;98212.88;;;19.50;84.36
39793;BME280;26080;42.264;24.536;2023-04-25T12:34:46;98231.75;;;19.21;86.16
39793;BME280;26080;42.264;24.536;2023-04-25T12:37:12;98250.13;;;18.42;78.30
39793;BME280;26080;42.264;24.536;2023-04-25T12:39:38;98245.47;;;17.60;86.16
39793;BME280;26080;42.264;24.536;2023-04-25T12:42:03;98249.13;;;16.91;98.29
39793;BME280;26080;42.264;24.536;2023-04-25T12:44:29;98276.34;;;16.02;100.00